Impacts TAF Board
For situational awareness. Not to be used for flight planning purposes.
IDs:

KOTH - North Bend/SW Oregon, OR, US

Issued at 0539 UTC 22 Oct 2021
Updated at 0703 UTC 22 Oct 2021
Potential Impact None Slight Moderate High
Time0656Z 22/08Z 22/09Z 22/10Z 22/11Z 22/12Z 22/13Z 22/14Z 22/15Z 22/16Z 22/17Z 22/18Z 22/19Z 22/20Z>>
Type OBS PRVL PRVL PRVL PRVL PRVL PRVL PRVL PRVL PRVL PRVL PRVL PRVL PRVL
VIS 10 >6 5 5 5 5 5 5 >6 >6 >6 >6 >6 >6
CIG 110 35 15 15 15 15 15 15 25 25 25 25 25 25
Cover OVC OVC OVC OVC OVC OVC OVC OVC OVC OVC OVC OVC OVC OVC
FltCat VFR VFR MVFR MVFR MVFR MVFR MVFR MVFR MVFR MVFR MVFR MVFR MVFR MVFR
WX -- -RA -SHRA BR -SHRA BR -SHRA BR -SHRA BR -SHRA BR -SHRA BR -SHRA -SHRA -SHRA -SHRA -SHRA -SHRA
WDir 150 170 170 170 170 170 170 170 180 180 180 180 180 180
WSpd 7 6 7 7 7 7 7 7 6 6 6 6 6 6
WGst -- -- -- -- -- -- -- -- -- -- -- -- -- --
Raw TAF
KOTH 220539Z 2206/2306 17006KT P6SM -RA SCT015 OVC035
  FM220900 17007KT 5SM -SHRA BR OVC015
  FM221500 18006KT P6SM -SHRA OVC025
  FM230300 17006KT P6SM SCT030 BKN050


Raw METAR
KOTH 220656Z AUTO 15007KT 10SM OVC110 12/11 A2983 RMK AO2 RAE29 SLP100 P0002 T01220106
KOTH 220556Z AUTO 14011KT 10SM RA OVC060 12/12 A2984 RMK AO2 SLP105 P0011 60039 T01220117 10133 20122 50008
KOTH 220456Z AUTO 17005KT 10SM -RA BKN055 OVC070 13/12 A2987 RMK AO2 SLP114 P0006 T01280117

METAR Board
Radar Display
Forecast Discussion
For situational awareness. Not to be used for flight planning purposes.